Harmony Corners, New York
Current Conditions -  °F | °C
As of 10:51 AM on Sunday 23 Nov 2014 (Local Time) from KALB Reporting Station
Few Clouds Few Clouds  
Wind Chill: 44°   Ceiling: Unl
Heat Index: 48°   Visibility: 10mi
Dew Point: 28°   Wind: 8mph
Humidity: 46%   Direction: 170°S
Pressure: 30.13"   Gusts: NA
Location:  43.002°N, 73.8759°W
Report Text: KALB 231551Z 17007KT 10SM FEW040 09/M02 A3013 RMK AO2 SLP206 T00891022
Loading
Personal Weather Stations






























Interactive Weather Map New forecast layout! Learn more

10-Day Weather Forecast

Advertisements
Track Severe Weather on mobile